createdAt,value
2018-06-16T00:00:00.937Z,98759.09
2018-06-16T00:00:32.150Z,98762.48
2018-06-16T00:01:03.328Z,98758.02
2018-06-16T00:01:34.544Z,98756.45
2018-06-16T00:02:05.748Z,98755.25
2018-06-16T00:02:36.928Z,98761.10
2018-06-16T00:03:08.188Z,98759.16
2018-06-16T00:03:39.417Z,98761.91
2018-06-16T00:04:10.625Z,98768.70
2018-06-16T00:04:41.801Z,98764.61
2018-06-16T00:05:13.022Z,98758.50
2018-06-16T00:05:44.188Z,98762.09
2018-06-16T00:06:15.401Z,98759.91
2018-06-16T00:06:46.584Z,98760.85
2018-06-16T00:07:17.757Z,98760.59
2018-06-16T00:07:48.989Z,98759.61
2018-06-16T00:08:20.172Z,98755.40
2018-06-16T00:08:51.377Z,98756.00
2018-06-16T00:09:22.560Z,98762.80
2018-06-16T00:09:53.748Z,98760.28
2018-06-16T00:10:24.916Z,98761.11
2018-06-16T00:10:56.989Z,98754.51
2018-06-16T00:11:28.165Z,98757.06
2018-06-16T00:11:59.386Z,98756.09
2018-06-16T00:12:30.624Z,98757.20
2018-06-16T00:13:01.813Z,98759.98
2018-06-16T00:13:33.005Z,98751.61
2018-06-16T00:14:04.277Z,98753.22
2018-06-16T00:14:35.457Z,98755.86
2018-06-16T00:15:06.629Z,98754.05
2018-06-16T00:15:37.844Z,98749.89
2018-06-16T00:16:09.025Z,98751.67
2018-06-16T00:16:40.252Z,98754.80
2018-06-16T00:17:11.496Z,98748.20
2018-06-16T00:17:42.685Z,98753.36
2018-06-16T00:18:13.949Z,98745.56
2018-06-16T00:18:45.184Z,98755.52
2018-06-16T00:19:16.368Z,98745.70
2018-06-16T00:19:47.591Z,98750.23
2018-06-16T00:20:18.766Z,98750.34
2018-06-16T00:20:49.997Z,98752.73
2018-06-16T00:21:21.185Z,98751.91
2018-06-16T00:21:52.355Z,98752.94
2018-06-16T00:22:23.532Z,98749.92
2018-06-16T00:22:54.702Z,98756.52
2018-06-16T00:23:25.962Z,98752.76
2018-06-16T00:23:57.145Z,98755.40
2018-06-16T00:24:28.323Z,98757.20
2018-06-16T00:24:59.577Z,98753.82
2018-06-16T00:25:30.819Z,98754.31
2018-06-16T00:26:01.998Z,98759.59
2018-06-16T00:26:33.253Z,98753.94
2018-06-16T00:27:04.549Z,98747.34
2018-06-16T00:27:35.725Z,98761.97
2018-06-16T00:28:06.936Z,98753.31
2018-06-16T00:28:38.113Z,98756.44
2018-06-16T00:29:09.289Z,98757.64
2018-06-16T00:29:40.527Z,98755.38
2018-06-16T00:30:11.688Z,98757.52
2018-06-16T00:30:42.917Z,98754.88
2018-06-16T00:31:14.109Z,98758.02
2018-06-16T00:31:45.377Z,98752.99
2018-06-16T00:32:17.148Z,98754.69
2018-06-16T00:32:48.390Z,98753.50
2018-06-16T00:33:19.575Z,98755.20
2018-06-16T00:33:50.752Z,98758.95
2018-06-16T00:34:21.928Z,98754.17
2018-06-16T00:34:53.213Z,98755.11
2018-06-16T00:35:24.390Z,98756.03
2018-06-16T00:35:55.607Z,98760.48
2018-06-16T00:36:26.789Z,98756.52
2018-06-16T00:36:57.968Z,98753.02
2018-06-16T00:37:29.202Z,98753.39
2018-06-16T00:38:00.439Z,98752.67
2018-06-16T00:38:31.616Z,98757.09
2018-06-16T00:39:02.853Z,98753.63
2018-06-16T00:39:34.085Z,98758.78
2018-06-16T00:40:05.307Z,98754.45
2018-06-16T00:40:36.531Z,98762.48
2018-06-16T00:41:07.709Z,98753.73
2018-06-16T00:41:38.884Z,98757.70
2018-06-16T00:42:10.097Z,98754.31
2018-06-16T00:42:41.309Z,98758.27
2018-06-16T00:43:12.484Z,98756.95
2018-06-16T00:43:43.716Z,98758.84
2018-06-16T00:44:14.989Z,98761.48
2018-06-16T00:44:46.168Z,98762.69
2018-06-16T00:45:17.407Z,98760.16
2018-06-16T00:45:48.665Z,98759.08
2018-06-16T00:46:19.848Z,98758.21
2018-06-16T00:46:51.074Z,98763.75
2018-06-16T00:47:22.250Z,98760.65
2018-06-16T00:47:53.432Z,98760.91
2018-06-16T00:48:24.654Z,98752.88
2018-06-16T00:48:55.830Z,98757.70
2018-06-16T00:49:27.004Z,98758.03
2018-06-16T00:49:58.168Z,98756.14
2018-06-16T00:50:29.408Z,98752.19
2018-06-16T00:51:00.638Z,98754.94
2018-06-16T00:51:31.853Z,98754.83
2018-06-16T00:52:03.048Z,98750.58
2018-06-16T00:52:34.232Z,98754.19
2018-06-16T00:53:05.408Z,98753.98
2018-06-16T00:53:36.685Z,98747.02
2018-06-16T00:54:07.861Z,98751.92
2018-06-16T00:54:39.123Z,98755.75
2018-06-16T00:55:10.312Z,98755.95
2018-06-16T00:55:41.540Z,98756.52
2018-06-16T00:56:12.713Z,98754.69
2018-06-16T00:56:43.938Z,98752.84
2018-06-16T00:57:15.169Z,98754.25
2018-06-16T00:57:46.353Z,98758.90
2018-06-16T00:58:17.603Z,98751.33
2018-06-16T00:58:48.836Z,98752.96
2018-06-16T00:59:20.062Z,98753.27
2018-06-16T00:59:51.290Z,98747.28
2018-06-16T01:00:22.464Z,98750.98
2018-06-16T01:00:53.633Z,98747.22
2018-06-16T01:01:24.804Z,98749.97
2018-06-16T01:01:55.980Z,98754.04
2018-06-16T01:02:27.165Z,98749.33
2018-06-16T01:02:58.347Z,98748.20
2018-06-16T01:03:29.580Z,98748.44
2018-06-16T01:04:00.869Z,98750.17
2018-06-16T01:04:32.112Z,98750.74
2018-06-16T01:05:03.305Z,98750.74
2018-06-16T01:05:34.508Z,98742.84
2018-06-16T01:06:05.686Z,98747.28
2018-06-16T01:06:36.934Z,98744.16
2018-06-16T01:07:08.127Z,98751.12
2018-06-16T01:07:39.322Z,98738.88
2018-06-16T01:08:10.504Z,98747.54
2018-06-16T01:08:41.742Z,98750.67
2018-06-16T01:09:13.015Z,98746.59
2018-06-16T01:09:44.209Z,98748.86
2018-06-16T01:10:15.386Z,98745.28
2018-06-16T01:10:46.571Z,98747.05
2018-06-16T01:11:17.744Z,98744.33
2018-06-16T01:11:48.988Z,98747.05
2018-06-16T01:12:20.172Z,98743.58
2018-06-16T01:12:51.394Z,98744.53
2018-06-16T01:13:22.577Z,98738.88
2018-06-16T01:13:53.755Z,98749.42
2018-06-16T01:14:24.952Z,98745.13
2018-06-16T01:14:56.167Z,98740.53
2018-06-16T01:15:27.412Z,98739.90
2018-06-16T01:15:58.598Z,98743.22
2018-06-16T01:16:29.772Z,98746.31
2018-06-16T01:17:00.951Z,98747.17
2018-06-16T01:17:32.120Z,98745.97
2018-06-16T01:18:03.294Z,98749.55
2018-06-16T01:18:34.460Z,98748.05
2018-06-16T01:19:05.640Z,98745.52
2018-06-16T01:19:36.848Z,98742.73
2018-06-16T01:20:08.069Z,98742.58
2018-06-16T01:20:39.296Z,98743.14
2018-06-16T01:21:10.476Z,98746.34
2018-06-16T01:21:41.653Z,98750.90
2018-06-16T01:22:12.817Z,98744.39
2018-06-16T01:22:44.044Z,98744.98
2018-06-16T01:23:15.232Z,98749.02
2018-06-16T01:23:46.396Z,98746.19
2018-06-16T01:24:17.561Z,98741.78
2018-06-16T01:24:48.800Z,98748.45
2018-06-16T01:25:19.965Z,98747.47
2018-06-16T01:25:51.163Z,98749.72
2018-06-16T01:26:22.381Z,98747.92
2018-06-16T01:26:53.552Z,98748.52
2018-06-16T01:27:24.732Z,98753.86
2018-06-16T01:27:55.896Z,98748.25
2018-06-16T01:28:27.084Z,98753.14
2018-06-16T01:28:58.276Z,98748.81
2018-06-16T01:29:29.497Z,98754.09
2018-06-16T01:30:00.723Z,98751.45
2018-06-16T01:30:31.890Z,98751.07
2018-06-16T01:31:03.130Z,98751.19
2018-06-16T01:31:34.312Z,98749.97
2018-06-16T01:32:05.476Z,98749.00
2018-06-16T01:32:36.701Z,98752.13
2018-06-16T01:33:07.884Z,98753.44
2018-06-16T01:33:39.117Z,98752.13
2018-06-16T01:34:10.372Z,98753.92
2018-06-16T01:34:41.544Z,98758.82
2018-06-16T01:35:12.761Z,98750.05
2018-06-16T01:35:43.938Z,98748.39
2018-06-16T01:36:16.296Z,98754.11
2018-06-16T01:36:47.464Z,98754.22
2018-06-16T01:37:18.629Z,98755.64
2018-06-16T01:37:49.801Z,98755.83
2018-06-16T01:38:21.013Z,98751.43
2018-06-16T01:38:52.217Z,98753.04
2018-06-16T01:39:23.396Z,98750.24
2018-06-16T01:39:54.633Z,98752.50
2018-06-16T01:40:25.862Z,98756.91
2018-06-16T01:40:57.058Z,98751.30
2018-06-16T01:41:28.292Z,98757.77
2018-06-16T01:41:59.504Z,98754.38
2018-06-16T01:42:30.704Z,98758.89
2018-06-16T01:43:01.883Z,98757.13
2018-06-16T01:43:33.056Z,98763.59
2018-06-16T01:44:04.249Z,98767.92
2018-06-16T01:44:35.466Z,98764.36
2018-06-16T01:45:06.653Z,98769.03
2018-06-16T01:45:37.877Z,98765.19
2018-06-16T01:46:09.062Z,98765.48
2018-06-16T01:46:40.231Z,98767.66
2018-06-16T01:47:11.458Z,98771.98
2018-06-16T01:47:42.628Z,98770.67
2018-06-16T01:48:13.800Z,98764.27
2018-06-16T01:48:44.978Z,98767.01
2018-06-16T01:49:16.208Z,98770.84
2018-06-16T01:49:47.417Z,98771.44
2018-06-16T01:50:18.585Z,98771.06
2018-06-16T01:50:49.820Z,98766.73
2018-06-16T01:51:21.000Z,98765.87
2018-06-16T01:51:52.199Z,98767.78
2018-06-16T01:52:23.416Z,98765.98
2018-06-16T01:52:54.592Z,98772.67
2018-06-16T01:53:25.766Z,98773.05
2018-06-16T01:53:56.985Z,98770.52
2018-06-16T01:54:28.170Z,98773.61
2018-06-16T01:54:59.712Z,98773.23
2018-06-16T01:55:30.893Z,98774.92
2018-06-16T01:56:02.068Z,98775.79
2018-06-16T01:56:33.248Z,98774.92
2018-06-16T01:57:04.424Z,98776.62
2018-06-16T01:57:35.666Z,98776.13
2018-06-16T01:58:06.862Z,98774.55
2018-06-16T01:58:38.040Z,98779.75
2018-06-16T01:59:09.257Z,98772.03
2018-06-16T01:59:40.474Z,98775.53
2018-06-16T02:00:11.716Z,98775.91
2018-06-16T02:00:42.877Z,98778.89
2018-06-16T02:01:14.040Z,98773.28
2018-06-16T02:01:45.212Z,98778.89
2018-06-16T02:02:16.446Z,98774.48
2018-06-16T02:02:47.681Z,98773.63
2018-06-16T02:03:18.916Z,98771.75
2018-06-16T02:03:50.153Z,98774.28
2018-06-16T02:04:21.381Z,98772.02
2018-06-16T02:04:52.575Z,98775.52
2018-06-16T02:05:23.752Z,98775.86
2018-06-16T02:05:54.983Z,98769.66
2018-06-16T02:06:26.216Z,98772.30
2018-06-16T02:06:57.416Z,98764.39
2018-06-16T02:07:28.576Z,98769.20
2018-06-16T02:07:59.763Z,98765.60
2018-06-16T02:08:31.036Z,98761.65
2018-06-16T02:09:02.265Z,98771.35
2018-06-16T02:09:33.501Z,98764.39
2018-06-16T02:10:04.688Z,98763.94
2018-06-16T02:10:35.965Z,98761.65
2018-06-16T02:11:07.155Z,98759.88
2018-06-16T02:11:38.378Z,98760.61
2018-06-16T02:12:09.559Z,98754.12
2018-06-16T02:12:40.737Z,98758.95
2018-06-16T02:13:11.910Z,98760.26
2018-06-16T02:13:43.175Z,98753.86
2018-06-16T02:14:14.370Z,98756.88
2018-06-16T02:14:45.623Z,98764.28
2018-06-16T02:15:16.800Z,98753.86
2018-06-16T02:15:47.970Z,98754.61
2018-06-16T02:16:19.142Z,98758.75
2018-06-16T02:16:50.313Z,98756.49
2018-06-16T02:17:21.550Z,98762.52
2018-06-16T02:17:52.781Z,98761.20
2018-06-16T02:18:23.962Z,98758.95
2018-06-16T02:18:55.211Z,98760.26
2018-06-16T02:19:26.376Z,98760.31
2018-06-16T02:19:57.602Z,98755.70
2018-06-16T02:20:28.833Z,98757.77
2018-06-16T02:21:00.065Z,98756.83
2018-06-16T02:21:31.243Z,98756.61
2018-06-16T02:22:02.452Z,98757.55
2018-06-16T02:22:33.725Z,98758.03
2018-06-16T02:23:04.917Z,98760.86
2018-06-16T02:23:36.155Z,98760.41
2018-06-16T02:24:07.377Z,98760.51
2018-06-16T02:24:38.556Z,98757.02
2018-06-16T02:25:09.744Z,98760.13
2018-06-16T02:25:40.965Z,98752.13
2018-06-16T02:26:12.147Z,98759.47
2018-06-16T02:26:43.320Z,98761.72
2018-06-16T02:27:14.573Z,98760.02
2018-06-16T02:27:45.802Z,98757.13
2018-06-16T02:28:16.968Z,98762.01
2018-06-16T02:28:48.194Z,98761.91
2018-06-16T02:29:19.411Z,98764.16
2018-06-16T02:29:50.609Z,98761.52
2018-06-16T02:30:21.829Z,98763.33
2018-06-16T02:30:53.058Z,98761.63
2018-06-16T02:31:24.293Z,98762.12
2018-06-16T02:31:55.472Z,98760.05
2018-06-16T02:32:26.761Z,98762.30
2018-06-16T02:32:57.991Z,98768.16
2018-06-16T02:33:29.223Z,98763.83
2018-06-16T02:34:00.401Z,98765.60
2018-06-16T02:34:31.633Z,98761.76
2018-06-16T02:35:02.825Z,98761.38
2018-06-16T02:35:34.046Z,98765.33
2018-06-16T02:36:05.228Z,98759.23
2018-06-16T02:36:36.464Z,98760.55
2018-06-16T02:37:07.699Z,98762.70
2018-06-16T02:37:38.928Z,98755.28
2018-06-16T02:38:10.105Z,98754.08
2018-06-16T02:38:41.269Z,98761.59
2018-06-16T02:39:12.502Z,98759.90
2018-06-16T02:39:43.692Z,98760.73
2018-06-16T02:40:14.856Z,98755.28
2018-06-16T02:40:46.025Z,98759.72
2018-06-16T02:41:17.249Z,98757.91
2018-06-16T02:41:48.481Z,98760.55
2018-06-16T02:42:19.658Z,98763.67
2018-06-16T02:42:50.892Z,98764.23
2018-06-16T02:43:22.125Z,98768.17
2018-06-16T02:43:53.321Z,98764.78
2018-06-16T02:44:24.556Z,98767.04
2018-06-16T02:44:55.786Z,98770.27
2018-06-16T02:45:27.004Z,98768.09
2018-06-16T02:45:58.177Z,98768.57
2018-06-16T02:46:29.357Z,98769.13
2018-06-16T02:47:00.530Z,98777.52
2018-06-16T02:47:31.717Z,98774.02
2018-06-16T02:48:02.948Z,98777.13
2018-06-16T02:48:34.189Z,98780.59
2018-06-16T02:49:05.382Z,98776.65
2018-06-16T02:49:36.558Z,98778.94
2018-06-16T02:50:07.772Z,98780.25
2018-06-16T02:50:38.977Z,98775.92
2018-06-16T02:51:10.144Z,98776.10
2018-06-16T02:51:41.430Z,98782.30
2018-06-16T02:52:12.595Z,98782.61
2018-06-16T02:52:43.777Z,98779.11
2018-06-16T02:53:15.047Z,98773.84
2018-06-16T02:53:46.233Z,98774.61
2018-06-16T02:54:17.449Z,98773.08
2018-06-16T02:54:48.644Z,98778.17
2018-06-16T02:55:19.882Z,98774.94
2018-06-16T02:55:51.076Z,98773.63
2018-06-16T02:56:22.250Z,98775.32
2018-06-16T02:56:53.456Z,98770.43
2018-06-16T02:57:24.682Z,98775.32
2018-06-16T02:57:55.873Z,98771.85
2018-06-16T02:58:27.056Z,98771.96
2018-06-16T02:58:58.236Z,98766.70
2018-06-16T02:59:29.414Z,98769.78
2018-06-16T03:00:00.586Z,98762.75
2018-06-16T03:00:31.819Z,98766.70
2018-06-16T03:01:03.009Z,98772.69
2018-06-16T03:01:34.289Z,98770.54
2018-06-16T03:02:05.477Z,98768.63
2018-06-16T03:02:36.648Z,98770.25
2018-06-16T03:03:07.828Z,98769.77
2018-06-16T03:03:39.033Z,98774.36
2018-06-16T03:04:10.206Z,98773.77
2018-06-16T03:04:41.433Z,98779.61
2018-06-16T03:05:12.646Z,98780.16
2018-06-16T03:05:43.812Z,98775.54
2018-06-16T03:06:15.033Z,98784.81
2018-06-16T03:06:46.258Z,98779.25
2018-06-16T03:07:17.424Z,98778.84
2018-06-16T03:07:48.630Z,98777.12
2018-06-16T03:08:19.800Z,98781.13
2018-06-16T03:08:50.973Z,98785.05
2018-06-16T03:09:22.198Z,98780.34
2018-06-16T03:09:53.474Z,98779.11
2018-06-16T03:10:24.667Z,98778.70
2018-06-16T03:10:55.843Z,98787.02
2018-06-16T03:11:27.075Z,98783.97
2018-06-16T03:11:58.253Z,98786.57
2018-06-16T03:12:29.454Z,98784.84
2018-06-16T03:13:00.652Z,98785.62
2018-06-16T03:13:31.820Z,98781.73
2018-06-16T03:14:03.053Z,98782.83
2018-06-16T03:14:34.233Z,98790.32
2018-06-16T03:15:05.494Z,98782.21
2018-06-16T03:15:36.720Z,98786.58
2018-06-16T03:16:07.892Z,98789.25
2018-06-16T03:16:39.164Z,98787.05
2018-06-16T03:17:10.397Z,98789.70
2018-06-16T03:17:41.576Z,98786.50
2018-06-16T03:18:12.770Z,98790.89
2018-06-16T03:18:43.999Z,98789.75
2018-06-16T03:19:15.236Z,98786.05
2018-06-16T03:19:46.465Z,98785.44
2018-06-16T03:20:17.656Z,98793.16
2018-06-16T03:20:48.839Z,98784.17
2018-06-16T03:21:20.013Z,98791.52
2018-06-16T03:21:51.283Z,98784.80
2018-06-16T03:22:22.452Z,98783.73
2018-06-16T03:22:53.626Z,98788.78
2018-06-16T03:23:24.819Z,98791.48
2018-06-16T03:23:56.052Z,98792.56
2018-06-16T03:24:27.241Z,98787.66
2018-06-16T03:24:58.456Z,98797.41
2018-06-16T03:25:30.514Z,98789.53
2018-06-16T03:26:01.845Z,98796.89
2018-06-16T03:26:33.010Z,98793.44
2018-06-16T03:27:04.217Z,98801.88
2018-06-16T03:27:35.384Z,98801.66
2018-06-16T03:28:06.600Z,98796.01
2018-06-16T03:28:37.868Z,98802.13
2018-06-16T03:29:09.049Z,98802.98
2018-06-16T03:29:40.276Z,98798.16
2018-06-16T03:30:11.502Z,98796.13
2018-06-16T03:30:42.732Z,98798.02
2018-06-16T03:31:13.964Z,98797.41
2018-06-16T03:31:45.140Z,98793.30
2018-06-16T03:32:16.361Z,98790.98
2018-06-16T03:32:47.570Z,98799.03
2018-06-16T03:33:18.785Z,98800.84
2018-06-16T03:33:49.948Z,98793.38
2018-06-16T03:34:21.131Z,98798.29
2018-06-16T03:34:52.301Z,98802.30
2018-06-16T03:35:23.529Z,98795.95
2018-06-16T03:35:54.709Z,98802.11
2018-06-16T03:36:25.978Z,98801.62
2018-06-16T03:36:57.158Z,98803.43
2018-06-16T03:37:28.324Z,98800.99
2018-06-16T03:37:59.575Z,98802.92
2018-06-16T03:38:30.793Z,98801.69
2018-06-16T03:39:02.018Z,98803.01
2018-06-16T03:39:33.240Z,98800.99
2018-06-16T03:40:04.433Z,98801.36
2018-06-16T03:40:35.623Z,98799.84
2018-06-16T03:41:06.838Z,98802.61
2018-06-16T03:41:38.018Z,98809.61
2018-06-16T03:42:09.185Z,98799.08
2018-06-16T03:42:40.369Z,98801.48
2018-06-16T03:43:11.622Z,98798.75
2018-06-16T03:43:42.890Z,98802.22
2018-06-16T03:44:14.081Z,98805.69
2018-06-16T03:44:45.250Z,98804.87
2018-06-16T03:45:16.416Z,98807.09
2018-06-16T03:45:47.695Z,98804.87
2018-06-16T03:46:18.868Z,98806.36
2018-06-16T03:46:50.089Z,98805.23
2018-06-16T03:47:21.321Z,98809.23
2018-06-16T03:47:52.554Z,98809.70
2018-06-16T03:48:23.784Z,98809.61
2018-06-16T03:48:54.992Z,98806.14
2018-06-16T03:49:26.212Z,98807.83
2018-06-16T03:49:57.441Z,98809.73
2018-06-16T03:50:28.616Z,98811.53
2018-06-16T03:50:59.788Z,98809.00
2018-06-16T03:51:31.008Z,98807.55
2018-06-16T03:52:02.188Z,98811.53
2018-06-16T03:52:33.364Z,98808.66
2018-06-16T03:53:04.532Z,98813.13
2018-06-16T03:53:35.728Z,98813.61
2018-06-16T03:54:06.936Z,98816.62
2018-06-16T03:54:38.142Z,98819.61
2018-06-16T03:55:09.371Z,98825.63
2018-06-16T03:55:40.573Z,98814.31
2018-06-16T03:56:11.752Z,98818.28
2018-06-16T03:56:42.930Z,98814.68
2018-06-16T03:57:14.432Z,98819.14
2018-06-16T03:57:45.665Z,98814.44
2018-06-16T03:58:16.848Z,98816.47
2018-06-16T03:58:48.079Z,98814.44
2018-06-16T03:59:19.288Z,98816.35
2018-06-16T03:59:50.609Z,98810.56
2018-06-16T04:00:21.794Z,98812.14
2018-06-16T04:00:53.026Z,98811.03
2018-06-16T04:01:24.212Z,98812.48
2018-06-16T04:01:55.446Z,98810.79
2018-06-16T04:02:27.226Z,98811.77
2018-06-16T04:02:58.476Z,98809.71
2018-06-16T04:03:29.669Z,98811.75
2018-06-16T04:04:00.885Z,98805.84
2018-06-16T04:04:32.153Z,98804.02
2018-06-16T04:05:03.334Z,98811.84
2018-06-16T04:05:34.562Z,98803.66
2018-06-16T04:06:05.744Z,98805.93
2018-06-16T04:06:36.931Z,98805.93
2018-06-16T04:07:08.104Z,98803.28
2018-06-16T04:07:40.328Z,98806.42
2018-06-16T04:08:11.606Z,98804.77
2018-06-16T04:08:42.836Z,98810.55
2018-06-16T04:09:14.019Z,98810.91
2018-06-16T04:09:45.232Z,98809.12
2018-06-16T04:10:16.408Z,98814.53
2018-06-16T04:10:47.689Z,98810.81
2018-06-16T04:11:18.878Z,98810.72
2018-06-16T04:11:50.051Z,98817.20
2018-06-16T04:12:21.228Z,98812.19
2018-06-16T04:12:52.404Z,98814.38
2018-06-16T04:13:23.600Z,98817.30
2018-06-16T04:13:54.851Z,98816.91
2018-06-16T04:14:26.049Z,98817.64
2018-06-16T04:14:57.240Z,98822.35
2018-06-16T04:15:28.412Z,98815.23
2018-06-16T04:15:59.705Z,98820.07
2018-06-16T04:16:30.884Z,98819.45
2018-06-16T04:17:02.114Z,98815.48
2018-06-16T04:17:33.310Z,98821.86
2018-06-16T04:18:04.491Z,98819.58
2018-06-16T04:18:35.784Z,98815.86
2018-06-16T04:19:06.964Z,98820.66
2018-06-16T04:19:38.144Z,98821.73
2018-06-16T04:20:09.379Z,98817.41
2018-06-16T04:20:40.584Z,98821.61
2018-06-16T04:21:11.827Z,98818.72
2018-06-16T04:21:43.063Z,98819.69
2018-06-16T04:22:14.313Z,98820.30
2018-06-16T04:22:45.592Z,98815.25
2018-06-16T04:23:16.828Z,98819.47
2018-06-16T04:23:48.078Z,98817.42
2018-06-16T04:24:19.254Z,98818.73
2018-06-16T04:24:50.449Z,98817.38
2018-06-16T04:25:21.629Z,98823.16
2018-06-16T04:25:52.868Z,98815.21
2018-06-16T04:26:24.056Z,98817.27
2018-06-16T04:26:55.242Z,98817.38
2018-06-16T04:27:26.424Z,98818.61
2018-06-16T04:27:57.641Z,98817.53
2018-06-16T04:28:28.813Z,98819.80
2018-06-16T04:29:00.036Z,98817.30
2018-06-16T04:29:31.233Z,98814.52
2018-06-16T04:30:02.416Z,98823.42
2018-06-16T04:30:33.596Z,98821.73
2018-06-16T04:31:04.801Z,98817.42
2018-06-16T04:31:36.003Z,98826.80
2018-06-16T04:32:07.237Z,98818.86
2018-06-16T04:32:38.424Z,98824.62
2018-06-16T04:33:09.678Z,98825.84
2018-06-16T04:33:40.860Z,98828.50
2018-06-16T04:34:12.061Z,98831.84
2018-06-16T04:34:43.297Z,98830.41
2018-06-16T04:35:14.508Z,98831.25
2018-06-16T04:35:45.744Z,98830.30
2018-06-16T04:36:16.992Z,98828.84
2018-06-16T04:36:48.180Z,98830.52
2018-06-16T04:37:19.408Z,98828.84
2018-06-16T04:37:50.582Z,98833.17
2018-06-16T04:38:21.753Z,98829.33
2018-06-16T04:38:52.932Z,98832.81
2018-06-16T04:39:24.112Z,98831.59
2018-06-16T04:39:55.288Z,98827.39
2018-06-16T04:40:26.456Z,98830.62
2018-06-16T04:40:57.675Z,98834.27
2018-06-16T04:41:28.921Z,98836.17
2018-06-16T04:42:00.117Z,98827.64
2018-06-16T04:42:31.349Z,98829.08
2018-06-16T04:43:02.546Z,98830.88
2018-06-16T04:43:33.773Z,98826.45
2018-06-16T04:44:04.993Z,98831.85
2018-06-16T04:44:36.180Z,98827.16
2018-06-16T04:45:07.409Z,98827.37
2018-06-16T04:45:38.728Z,98825.05
2018-06-16T04:46:09.904Z,98832.60
2018-06-16T04:46:41.100Z,98829.85
2018-06-16T04:47:12.284Z,98823.32
2018-06-16T04:47:43.505Z,98830.55
2018-06-16T04:48:14.741Z,98828.76
2018-06-16T04:48:45.958Z,98832.88
2018-06-16T04:49:17.152Z,98823.39
2018-06-16T04:49:48.385Z,98833.86
2018-06-16T04:50:19.635Z,98826.06
2018-06-16T04:50:50.861Z,98831.50
2018-06-16T04:51:22.108Z,98830.86
2018-06-16T04:51:53.342Z,98827.73
2018-06-16T04:52:24.531Z,98835.09
2018-06-16T04:52:55.767Z,98834.50
2018-06-16T04:53:27.024Z,98826.31
2018-06-16T04:53:58.206Z,98840.03
2018-06-16T04:54:29.430Z,98835.59
2018-06-16T04:55:00.618Z,98828.59
2018-06-16T04:55:31.886Z,98840.89
2018-06-16T04:56:03.118Z,98835.08
2018-06-16T04:56:34.365Z,98834.39
2018-06-16T04:57:05.566Z,98838.82
2018-06-16T04:57:36.753Z,98834.15
2018-06-16T04:58:07.992Z,98834.73
2018-06-16T04:58:39.176Z,98822.34
2018-06-16T04:59:10.854Z,98827.27
2018-06-16T04:59:42.036Z,98828.23
2018-06-16T05:00:13.309Z,98825.09
2018-06-16T05:00:44.494Z,98825.23
2018-06-16T05:01:15.677Z,98818.58
2018-06-16T05:01:46.852Z,98820.47
2018-06-16T05:02:18.032Z,98819.84
2018-06-16T05:02:49.214Z,98819.97
2018-06-16T05:03:20.392Z,98818.64
2018-06-16T05:03:51.589Z,98818.65
2018-06-16T05:04:22.820Z,98825.28
2018-06-16T05:04:54.065Z,98821.66
2018-06-16T05:05:25.353Z,98826.01
2018-06-16T05:05:56.548Z,98829.98
2018-06-16T05:06:27.768Z,98827.93
2018-06-16T05:06:58.952Z,98832.05
2018-06-16T05:07:30.188Z,98829.75
2018-06-16T05:08:01.381Z,98829.16
2018-06-16T05:08:32.631Z,98831.70
2018-06-16T05:09:03.861Z,98832.44
2018-06-16T05:09:35.044Z,98830.74
2018-06-16T05:10:06.224Z,98832.23
2018-06-16T05:10:37.416Z,98839.80
2018-06-16T05:11:08.700Z,98838.34
2018-06-16T05:11:39.963Z,98834.62
2018-06-16T05:12:11.193Z,98837.16
2018-06-16T05:12:42.430Z,98832.34
2018-06-16T05:13:13.613Z,98835.35
2018-06-16T05:13:44.792Z,98841.00
2018-06-16T05:14:16.052Z,98836.17
2018-06-16T05:14:47.250Z,98836.31
2018-06-16T05:15:18.421Z,98831.38
2018-06-16T05:15:49.602Z,98832.55
2018-06-16T05:16:20.781Z,98827.16
2018-06-16T05:16:52.069Z,98823.59
2018-06-16T05:17:23.228Z,98829.95
2018-06-16T05:17:54.416Z,98823.73
2018-06-16T05:18:25.597Z,98830.68
2018-06-16T05:18:56.786Z,98829.47
2018-06-16T05:19:28.024Z,98828.14
2018-06-16T05:19:59.268Z,98828.74
2018-06-16T05:20:30.514Z,98831.16
2018-06-16T05:21:01.697Z,98832.56
2018-06-16T05:21:32.893Z,98834.43
2018-06-16T05:22:04.123Z,98830.30
2018-06-16T05:22:35.304Z,98834.23
2018-06-16T05:23:06.476Z,98826.60
2018-06-16T05:23:37.655Z,98834.05
2018-06-16T05:24:08.855Z,98828.88
2018-06-16T05:24:40.092Z,98831.15
2018-06-16T05:25:11.264Z,98830.09
2018-06-16T05:25:42.494Z,98833.50
2018-06-16T05:26:13.721Z,98836.73
2018-06-16T05:26:44.952Z,98837.02
2018-06-16T05:27:16.177Z,98835.86
2018-06-16T05:27:47.365Z,98834.15
2018-06-16T05:28:18.574Z,98838.83
2018-06-16T05:28:49.756Z,98835.17
2018-06-16T05:29:20.925Z,98832.87
2018-06-16T05:29:52.120Z,98830.53
2018-06-16T05:30:23.297Z,98833.22
2018-06-16T05:30:54.480Z,98828.91
2018-06-16T05:31:25.704Z,98830.02
2018-06-16T05:31:56.932Z,98833.02
2018-06-16T05:32:28.124Z,98834.36
2018-06-16T05:32:59.300Z,98828.86
2018-06-16T05:33:30.472Z,98833.22
2018-06-16T05:34:01.646Z,98832.58
2018-06-16T05:34:32.823Z,98832.94
2018-06-16T05:35:04.044Z,98833.17
2018-06-16T05:35:35.234Z,98833.98
2018-06-16T05:36:06.413Z,98836.60
2018-06-16T05:36:37.594Z,98837.22
2018-06-16T05:37:08.810Z,98837.06
2018-06-16T05:37:40.037Z,98840.26
2018-06-16T05:38:11.215Z,98840.97
2018-06-16T05:38:42.388Z,98836.30
2018-06-16T05:39:13.576Z,98836.67
2018-06-16T05:39:44.752Z,98838.59
2018-06-16T05:40:15.946Z,98834.94
2018-06-16T05:40:47.120Z,98838.34
2018-06-16T05:41:18.343Z,98834.02
2018-06-16T05:41:49.584Z,98835.87
2018-06-16T05:42:20.876Z,98828.67
2018-06-16T05:42:52.117Z,98826.69
2018-06-16T05:43:23.345Z,98820.56
2018-06-16T05:43:54.588Z,98820.88
2018-06-16T05:44:25.845Z,98827.25
2018-06-16T05:44:57.056Z,98831.16
2018-06-16T05:45:28.241Z,98821.23
2018-06-16T05:45:59.407Z,98817.77
2018-06-16T05:46:30.630Z,98819.83
2018-06-16T05:47:01.829Z,98823.02
2018-06-16T05:47:33.125Z,98820.53
2018-06-16T05:48:04.336Z,98822.34
2018-06-16T05:48:35.560Z,98827.05
2018-06-16T05:49:06.729Z,98823.16
2018-06-16T05:49:37.897Z,98825.83
2018-06-16T05:50:09.197Z,98825.31
2018-06-16T05:50:40.385Z,98832.86
2018-06-16T05:51:11.607Z,98830.47
2018-06-16T05:51:42.793Z,98828.39
2018-06-16T05:52:13.978Z,98837.22
2018-06-16T05:52:45.193Z,98836.16
2018-06-16T05:53:16.366Z,98837.29
2018-06-16T05:53:47.580Z,98842.27
2018-06-16T05:54:18.784Z,98840.59
2018-06-16T05:54:49.972Z,98840.61
2018-06-16T05:55:21.198Z,98838.53
2018-06-16T05:55:52.376Z,98834.34
2018-06-16T05:56:23.557Z,98839.06
2018-06-16T05:56:54.742Z,98842.64
2018-06-16T05:57:25.929Z,98839.88
2018-06-16T05:57:57.191Z,98842.61
2018-06-16T05:58:28.362Z,98847.05
2018-06-16T05:58:59.597Z,98841.00
2018-06-16T05:59:30.829Z,98842.53
2018-06-16T06:00:02.070Z,98841.22
2018-06-16T06:00:33.285Z,98849.13
2018-06-16T06:01:04.456Z,98846.48
2018-06-16T06:01:35.636Z,98820.53
2018-06-16T06:02:06.872Z,98844.17
2018-06-16T06:02:38.052Z,98845.23
2018-06-16T06:03:09.238Z,98848.90
2018-06-16T06:03:40.468Z,98842.56
2018-06-16T06:04:11.741Z,98848.63
2018-06-16T06:04:42.985Z,98838.48
2018-06-16T06:05:14.177Z,98843.09
2018-06-16T06:05:45.368Z,98841.95
2018-06-16T06:06:16.601Z,98844.83